TAP83RS LPPT-LPMA
Flight info
| Callsign | TAP83RS |
|---|---|
| Flight time | N/A |
| Altitude | 33000 |
| Route | ULVOT DCT GALPA DCT RAKUN |
| Aircraft | A320/M-SDE3FGHIRWY/LB1 |
Departure
| Time | 2026-05-04 14:46 |
|---|---|
| Airport | Lisbon Humberto Delgado Airport (LPPT) |
Arrival
| Time | N/A |
|---|---|
| Airport | Cristiano Ronaldo International Airport (LPMA) |
| Time | Latitude | Longitude | Altitude | Speed | Heading |
|---|---|---|---|---|---|
| 2026-05-04 14:14 | 38.77144 | -9.13644 | 347 ft | 0 kts | 169° |
| 2026-05-04 14:25 | 38.77145 | -9.13644 | 347 ft | 0 kts | 169° |
| 2026-05-04 14:33 | 38.77147 | -9.13645 | 347 ft | 3 kts | 170° |
| 2026-05-04 14:34 | 38.77172 | -9.13644 | 355 ft | 4 kts | 203° |
| 2026-05-04 14:34 | 38.77194 | -9.13625 | 354 ft | 4 kts | 229° |
| 2026-05-04 14:34 | 38.77209 | -9.13597 | 355 ft | 4 kts | 248° |
| 2026-05-04 14:34 | 38.77213 | -9.13581 | 354 ft | 0 kts | 257° |
| 2026-05-04 14:42 | 38.77212 | -9.13588 | 347 ft | 1 kts | 257° |
| 2026-05-04 14:42 | 38.77204 | -9.13637 | 353 ft | 10 kts | 258° |
| 2026-05-04 14:43 | 38.77187 | -9.13743 | 351 ft | 13 kts | 258° |
| 2026-05-04 14:43 | 38.77161 | -9.13863 | 355 ft | 14 kts | 239° |
| 2026-05-04 14:43 | 38.77073 | -9.13932 | 353 ft | 16 kts | 200° |
| 2026-05-04 14:43 | 38.76919 | -9.14011 | 349 ft | 39 kts | 203° |
| 2026-05-04 14:44 | 38.76713 | -9.14122 | 347 ft | 17 kts | 202° |
| 2026-05-04 14:44 | 38.76609 | -9.14189 | 348 ft | 17 kts | 226° |
| 2026-05-04 14:44 | 38.76629 | -9.14332 | 336 ft | 19 kts | 305° |
| 2026-05-04 14:44 | 38.76742 | -9.14337 | 338 ft | 17 kts | 21° |
| 2026-05-04 14:45 | 38.76861 | -9.14275 | 338 ft | 25 kts | 22° |
| 2026-05-04 14:45 | 38.77208 | -9.14090 | 346 ft | 87 kts | 25° |
| 2026-05-04 14:45 | 38.77945 | -9.13696 | 350 ft | 140 kts | 22° |
| 2026-05-04 14:45 | 38.78961 | -9.13165 | 551 ft | 165 kts | 16° |
| 2026-05-04 14:46 | 38.79996 | -9.12596 | 1396 ft | 160 kts | 17° |
| 2026-05-04 14:46 | 38.81058 | -9.12027 | 1844 ft | 175 kts | 17° |
| 2026-05-04 14:46 | 38.82213 | -9.11238 | 2099 ft | 202 kts | 26° |
| 2026-05-04 14:46 | 38.83475 | -9.10266 | 2455 ft | 226 kts | 26° |
| 2026-05-04 14:47 | 38.84892 | -9.09179 | 2933 ft | 245 kts | 26° |
| 2026-05-04 14:47 | 38.86381 | -9.08029 | 3681 ft | 254 kts | 28° |
| 2026-05-04 14:47 | 38.87863 | -9.06732 | 4522 ft | 263 kts | 43° |
| 2026-05-04 14:47 | 38.88754 | -9.04649 | 5307 ft | 278 kts | 76° |
| 2026-05-04 14:48 | 38.88617 | -9.02166 | 6123 ft | 285 kts | 108° |
| 2026-05-04 14:48 | 38.87775 | -8.99875 | 7041 ft | 286 kts | 122° |
| 2026-05-04 14:48 | 38.86689 | -8.98399 | 7516 ft | 293 kts | 149° |
| 2026-05-04 14:48 | 38.84816 | -8.97384 | 8244 ft | 294 kts | 169° |
| 2026-05-04 14:49 | 38.82792 | -8.97119 | 9084 ft | 292 kts | 185° |
| 2026-05-04 14:49 | 38.80818 | -8.97653 | 9910 ft | 291 kts | 204° |
| 2026-05-04 14:49 | 38.78910 | -8.98617 | 10430 ft | 303 kts | 205° |
| 2026-05-04 14:49 | 38.76891 | -8.99685 | 10643 ft | 325 kts | 206° |
| 2026-05-04 14:50 | 38.74763 | -9.00833 | 11158 ft | 335 kts | 206° |
| 2026-05-04 14:50 | 38.72599 | -9.01997 | 11868 ft | 339 kts | 206° |
| 2026-05-04 14:50 | 38.70413 | -9.03166 | 12614 ft | 341 kts | 206° |
| 2026-05-04 14:50 | 38.68239 | -9.04329 | 13324 ft | 344 kts | 207° |
| 2026-05-04 14:51 | 38.66022 | -9.05516 | 14012 ft | 347 kts | 207° |
| 2026-05-04 14:51 | 38.63782 | -9.06712 | 14647 ft | 350 kts | 207° |
| 2026-05-04 14:51 | 38.61525 | -9.07914 | 15285 ft | 352 kts | 207° |
| 2026-05-04 14:51 | 38.59257 | -9.09125 | 15916 ft | 354 kts | 208° |
| 2026-05-04 14:52 | 38.56973 | -9.10348 | 16525 ft | 357 kts | 208° |
| 2026-05-04 14:52 | 38.54674 | -9.11576 | 17140 ft | 360 kts | 207° |
| 2026-05-04 14:52 | 38.52351 | -9.12813 | 17751 ft | 362 kts | 208° |
| 2026-05-04 14:52 | 38.50018 | -9.14055 | 18367 ft | 365 kts | 208° |
| 2026-05-04 14:53 | 38.47666 | -9.15305 | 18898 ft | 367 kts | 208° |
| 2026-05-04 14:53 | 38.45334 | -9.16544 | 19417 ft | 369 kts | 208° |
| 2026-05-04 14:53 | 38.42965 | -9.17835 | 19933 ft | 370 kts | 212° |
| 2026-05-04 14:53 | 38.40783 | -9.19518 | 20433 ft | 366 kts | 222° |
| 2026-05-04 14:54 | 38.38765 | -9.21503 | 20918 ft | 367 kts | 223° |
| 2026-05-04 14:54 | 38.36730 | -9.23503 | 21425 ft | 370 kts | 223° |
| 2026-05-04 14:54 | 38.34680 | -9.25505 | 21921 ft | 372 kts | 223° |
| 2026-05-04 14:54 | 38.32619 | -9.27510 | 22396 ft | 374 kts | 223° |
| 2026-05-04 14:55 | 38.30540 | -9.29528 | 22882 ft | 377 kts | 223° |
| 2026-05-04 14:55 | 38.28449 | -9.31557 | 23328 ft | 379 kts | 223° |
| 2026-05-04 14:55 | 38.26346 | -9.33599 | 23738 ft | 382 kts | 223° |
| 2026-05-04 14:55 | 38.24199 | -9.35687 | 24023 ft | 384 kts | 223° |
| 2026-05-04 14:56 | 38.22104 | -9.37721 | 24094 ft | 383 kts | 223° |
| 2026-05-04 14:56 | 38.19983 | -9.39774 | 24111 ft | 383 kts | 223° |
| 2026-05-04 14:56 | 38.17864 | -9.41821 | 24111 ft | 383 kts | 223° |
| 2026-05-04 14:56 | 38.15737 | -9.43880 | 24247 ft | 385 kts | 223° |
| 2026-05-04 14:57 | 38.13600 | -9.45951 | 24655 ft | 387 kts | 223° |
| 2026-05-04 14:57 | 38.11456 | -9.48030 | 25022 ft | 389 kts | 223° |
| 2026-05-04 14:57 | 38.09297 | -9.50119 | 25384 ft | 391 kts | 223° |
| 2026-05-04 14:57 | 38.07131 | -9.52214 | 25739 ft | 393 kts | 223° |
| 2026-05-04 14:58 | 38.04944 | -9.54329 | 26110 ft | 395 kts | 223° |
| 2026-05-04 14:58 | 38.02746 | -9.56444 | 26459 ft | 397 kts | 223° |
| 2026-05-04 14:58 | 38.00536 | -9.58565 | 26804 ft | 399 kts | 223° |
| 2026-05-04 14:58 | 37.98339 | -9.60732 | 27155 ft | 400 kts | 225° |
| 2026-05-04 14:59 | 37.96188 | -9.62979 | 27498 ft | 401 kts | 226° |
| 2026-05-04 14:59 | 37.94090 | -9.65247 | 27839 ft | 402 kts | 226° |
| 2026-05-04 14:59 | 37.89831 | -9.69906 | 28513 ft | 406 kts | 226° |
| 2026-05-04 15:00 | 37.87681 | -9.72238 | 28845 ft | 408 kts | 226° |
| 2026-05-04 15:00 | 37.85510 | -9.74569 | 29172 ft | 410 kts | 226° |
| 2026-05-04 15:00 | 37.83317 | -9.76902 | 29481 ft | 412 kts | 226° |
| 2026-05-04 15:01 | 37.78896 | -9.81576 | 30096 ft | 416 kts | 226° |
| 2026-05-04 15:01 | 37.76670 | -9.83926 | 30304 ft | 418 kts | 226° |
| 2026-05-04 15:01 | 37.74428 | -9.86298 | 30506 ft | 421 kts | 226° |
| 2026-05-04 15:01 | 37.72180 | -9.88679 | 30736 ft | 423 kts | 226° |
| 2026-05-04 15:02 | 37.69924 | -9.91066 | 30980 ft | 424 kts | 226° |
| 2026-05-04 15:02 | 37.67653 | -9.93466 | 31245 ft | 425 kts | 226° |
| 2026-05-04 15:02 | 37.65387 | -9.95859 | 31601 ft | 423 kts | 226° |
| 2026-05-04 15:02 | 37.63177 | -9.98229 | 31944 ft | 420 kts | 230° |
| 2026-05-04 15:03 | 37.61214 | -10.00899 | 32283 ft | 411 kts | 237° |
| 2026-05-04 15:03 | 37.59436 | -10.03721 | 32626 ft | 410 kts | 237° |
| 2026-05-04 15:03 | 37.57658 | -10.06524 | 32974 ft | 409 kts | 237° |
| 2026-05-04 15:03 | 37.55877 | -10.09321 | 33108 ft | 406 kts | 237° |
| 2026-05-04 15:04 | 37.52401 | -10.14754 | 33127 ft | 394 kts | 237° |
| 2026-05-04 15:04 | 37.48982 | -10.20114 | 33128 ft | 392 kts | 237° |
| 2026-05-04 15:05 | 37.45566 | -10.25474 | 33127 ft | 392 kts | 237° |
| 2026-05-04 15:05 | 37.42167 | -10.30798 | 33133 ft | 392 kts | 237° |
| 2026-05-04 15:06 | 37.38741 | -10.36156 | 33130 ft | 392 kts | 237° |
| 2026-05-04 15:07 | 37.33627 | -10.44146 | 33132 ft | 392 kts | 237° |
| 2026-05-04 15:07 | 37.30197 | -10.49470 | 33131 ft | 392 kts | 237° |
| 2026-05-04 15:08 | 37.26761 | -10.54800 | 33127 ft | 392 kts | 237° |
| 2026-05-04 15:08 | 37.23329 | -10.60116 | 33100 ft | 392 kts | 236° |
| 2026-05-04 15:09 | 37.19889 | -10.65443 | 33109 ft | 392 kts | 236° |
| 2026-05-04 15:09 | 37.16469 | -10.70721 | 33117 ft | 392 kts | 236° |
| 2026-05-04 15:10 | 37.11299 | -10.78688 | 33124 ft | 392 kts | 236° |
| 2026-05-04 15:11 | 37.06136 | -10.86642 | 33126 ft | 392 kts | 236° |
| 2026-05-04 15:11 | 37.02686 | -10.91937 | 33130 ft | 392 kts | 236° |
| 2026-05-04 15:12 | 36.99239 | -10.97225 | 33114 ft | 392 kts | 236° |
| 2026-05-04 15:12 | 36.96367 | -11.01621 | 33119 ft | 392 kts | 236° |
| 2026-05-04 15:13 | 36.92919 | -11.06897 | 33117 ft | 393 kts | 236° |
| 2026-05-04 15:13 | 36.89458 | -11.12185 | 33115 ft | 393 kts | 235° |
| 2026-05-04 15:14 | 36.85991 | -11.17464 | 33128 ft | 393 kts | 235° |
| 2026-05-04 15:14 | 36.82522 | -11.22745 | 33130 ft | 393 kts | 235° |
| 2026-05-04 15:15 | 36.79054 | -11.28022 | 33126 ft | 393 kts | 235° |
| 2026-05-04 15:15 | 36.75581 | -11.33285 | 33120 ft | 393 kts | 235° |
| 2026-05-04 15:16 | 36.70346 | -11.41191 | 33121 ft | 394 kts | 235° |
| 2026-05-04 15:17 | 36.65146 | -11.49062 | 33113 ft | 394 kts | 235° |
| 2026-05-04 15:17 | 36.59922 | -11.56941 | 33119 ft | 394 kts | 234° |
| 2026-05-04 15:18 | 36.56426 | -11.62191 | 33126 ft | 394 kts | 234° |
| 2026-05-04 15:19 | 36.51189 | -11.70053 | 33130 ft | 393 kts | 234° |
| 2026-05-04 15:19 | 36.45942 | -11.77905 | 33131 ft | 394 kts | 234° |
| 2026-05-04 15:20 | 36.44144 | -11.80582 | 33133 ft | 394 kts | 234° |
| 2026-05-04 15:20 | 36.40634 | -11.85809 | 33133 ft | 394 kts | 234° |
| 2026-05-04 15:21 | 36.37139 | -11.91033 | 33133 ft | 393 kts | 235° |
| 2026-05-04 15:22 | 36.31922 | -11.98810 | 33151 ft | 392 kts | 235° |
| 2026-05-04 15:22 | 36.26685 | -12.06568 | 33155 ft | 390 kts | 236° |
| 2026-05-04 15:23 | 36.23265 | -12.11632 | 33160 ft | 389 kts | 235° |
| 2026-05-04 15:23 | 36.19801 | -12.16752 | 33161 ft | 388 kts | 236° |
| 2026-05-04 15:24 | 36.12859 | -12.27001 | 33155 ft | 387 kts | 236° |
| 2026-05-04 15:25 | 36.09404 | -12.32099 | 33140 ft | 390 kts | 236° |
| 2026-05-04 15:26 | 36.04025 | -12.40050 | 33155 ft | 412 kts | 235° |
| 2026-05-04 15:26 | 35.98364 | -12.48342 | 33159 ft | 429 kts | 235° |
| 2026-05-04 15:27 | 35.92592 | -12.56763 | 33155 ft | 431 kts | 235° |
| 2026-05-04 15:28 | 35.86784 | -12.65246 | 33155 ft | 431 kts | 235° |
| 2026-05-04 15:29 | 35.80969 | -12.73716 | 33133 ft | 432 kts | 234° |
| 2026-05-04 15:30 | 35.67318 | -12.93477 | 33145 ft | 433 kts | 234° |
| 2026-05-04 15:31 | 35.61491 | -13.01902 | 33144 ft | 433 kts | 234° |
| 2026-05-04 15:32 | 35.51699 | -13.15992 | 33129 ft | 434 kts | 234° |
| 2026-05-04 15:34 | 35.41908 | -13.30025 | 33157 ft | 434 kts | 234° |
| 2026-05-04 15:34 | 35.36015 | -13.38432 | 33168 ft | 433 kts | 234° |
| 2026-05-04 15:35 | 35.30124 | -13.46832 | 33162 ft | 433 kts | 234° |
| 2026-05-04 15:36 | 35.24229 | -13.55215 | 33158 ft | 433 kts | 233° |
| 2026-05-04 15:36 | 35.20323 | -13.60743 | 33166 ft | 432 kts | 233° |
| 2026-05-04 15:37 | 35.16398 | -13.66305 | 33163 ft | 432 kts | 233° |
| 2026-05-04 15:37 | 35.12465 | -13.71855 | 33163 ft | 432 kts | 233° |
| 2026-05-04 15:38 | 35.08535 | -13.77394 | 33163 ft | 432 kts | 233° |
| 2026-05-04 15:38 | 35.04683 | -13.82828 | 33163 ft | 416 kts | 234° |
| 2026-05-04 15:39 | 35.00930 | -13.88131 | 33160 ft | 414 kts | 233° |
| 2026-05-04 15:40 | 34.95273 | -13.96084 | 33160 ft | 414 kts | 233° |
| 2026-05-04 15:40 | 34.91494 | -14.01379 | 33162 ft | 414 kts | 233° |
| 2026-05-04 15:41 | 34.87700 | -14.06669 | 33166 ft | 414 kts | 233° |
| 2026-05-04 15:41 | 34.83909 | -14.11955 | 33163 ft | 414 kts | 233° |
| 2026-05-04 15:42 | 34.80135 | -14.17241 | 33156 ft | 414 kts | 233° |
| 2026-05-04 15:42 | 34.76379 | -14.22485 | 33158 ft | 414 kts | 233° |
| 2026-05-04 15:43 | 34.72589 | -14.27750 | 33155 ft | 414 kts | 233° |
| 2026-05-04 15:43 | 34.68730 | -14.32945 | 33154 ft | 415 kts | 231° |
| 2026-05-04 15:44 | 34.64733 | -14.38016 | 33154 ft | 415 kts | 230° |